Terminal Aerodrome Forecast
Issued by NWS Wilmington, OH

Current Version | Previous Version | Text Only | Print | Product List | Glossary On
Versions: 1 2 3 4 5 6 7 8 9 10 11 12 13 14 15 16 17 18
203 FTUS41 KILN 130817 AAA TAFCMH TAF AMD KCMH 130817Z 1308/1406 32012G20KT 3SM -SHSN BKN025 OVC050 FM131000 31011KT P6SM -SHSN SCT015 BKN022 FM131200 30011KT P6SM FEW022 FM131700 30012KT P6SM VCSH BKN022 FM132300 29005KT P6SM BKN035=

USA.gov is the U.S. government's official web portal to all federal, state and local government web resources and services.